Time;durP1;ratioP1;P1;durP2;ratioP2;P2;SDS_P1;SDS_P2;PMS_P1;PMS_P2;Temp;Humidity;BMP_temperature;BMP_pressure;BME280_temperature;BME280_humidity;BME280_pressure;Samples;Min_cycle;Max_cycle;Signal;HPM_P1;HPM_P2
2023/03/23 00:01:56;;;;;;;;;;;;;;;10.92;100.00;100230.75;10541757;28;20019;-64
2023/03/23 00:07:00;;;;;;;;;;;;;;;11.13;100.00;100200.47;10524873;28;19930;-64
2023/03/23 00:12:05;;;;;;;;;;;;;;;10.94;100.00;100186.94;10542647;28;19971;-64
2023/03/23 00:17:14;;;;;;;;;;;;;;;10.91;100.00;100181.91;10523524;28;19928;-64
2023/03/23 00:22:16;;;;;;;;;;;;;;;11.05;100.00;100191.47;10541494;28;19924;-64
2023/03/23 00:27:17;;;;;;;;;;;;;;;11.07;100.00;100190.41;10524238;28;19931;-64
2023/03/23 00:32:27;;;;;;;;;;;;;;;10.97;100.00;100174.47;10542016;28;19930;-65
2023/03/23 00:37:28;;;;;;;;;;;;;;;11.35;100.00;100204.22;10506708;28;19924;-65
2023/03/23 00:42:29;;;;;;;;;;;;;;;11.37;100.00;100204.09;10540330;28;19977;-65
2023/03/23 00:47:30;;;;;;;;;;;;;;;11.30;100.00;100212.38;10541598;28;19924;-65
2023/03/23 00:52:31;;;;;;;;;;;;;;;11.34;100.00;100189.41;10540625;28;19924;-65
2023/03/23 00:57:32;;;;;;;;;;;;;;;11.46;100.00;100178.06;10540678;28;19924;-65
2023/03/23 01:02:35;;;;;;;;;;;;;;;11.64;100.00;100186.41;10539231;28;19925;-65
2023/03/23 01:07:36;;;;;;;;;;;;;;;11.43;100.00;100169.56;10541003;28;20006;-65
2023/03/23 01:12:38;;;;;;;;;;;;;;;11.51;100.00;100167.25;10522123;28;19967;-65
2023/03/23 01:17:40;;;;;;;;;;;;;;;11.38;100.00;100172.53;10539679;28;19924;-64
2023/03/23 01:22:41;;;;;;;;;;;;;;;11.13;100.00;100169.03;10539700;28;19924;-64
2023/03/23 01:27:42;;;;;;;;;;;;;;;11.03;100.00;100161.88;10522552;28;19973;-63
2023/03/23 01:32:44;;;;;;;;;;;;;;;10.97;100.00;100122.09;10539768;28;19974;-63
2023/03/23 01:37:45;;;;;;;;;;;;;;;11.09;100.00;100111.69;10538899;28;19924;-64
2023/03/23 01:42:46;;;;;;;;;;;;;;;10.92;100.00;100111.09;10538800;28;20087;-63
2023/03/23 01:47:48;;;;;;;;;;;;;;;10.94;100.00;100093.50;10543128;28;19946;-63
2023/03/23 01:52:51;;;;;;;;;;;;;;;10.91;100.00;100101.56;10547867;28;20356;-63
2023/03/23 01:57:52;;;;;;;;;;;;;;;10.91;100.00;100085.00;10547100;28;19924;-63
2023/03/23 02:02:53;;;;;;;;;;;;;;;10.96;100.00;100085.50;10546544;28;19932;-64
2023/03/23 02:07:58;;;;;;;;;;;;;;;11.10;100.00;100087.19;10546963;28;19970;-63
2023/03/23 02:13:00;;;;;;;;;;;;;;;11.13;100.00;100071.25;10529209;28;20014;-64
2023/03/23 02:18:08;;;;;;;;;;;;;;;10.93;100.00;100070.88;10512668;28;19924;-64
2023/03/23 02:23:13;;;;;;;;;;;;;;;11.03;100.00;100073.69;10528728;28;20015;-64
2023/03/23 02:28:29;;;;;;;;;;;;;;;11.34;100.00;100063.63;10547030;28;19928;-64
2023/03/23 02:33:35;;;;;;;;;;;;;;;10.97;100.00;100056.59;10527375;28;19935;-66
2023/03/23 02:39:03;;;;;;;;;;;;;;;11.29;100.00;100053.47;10527988;28;20384;-66
2023/03/23 02:44:04;;;;;;;;;;;;;;;11.17;100.00;100051.75;10542027;28;19924;-64
2023/03/23 02:49:06;;;;;;;;;;;;;;;11.25;100.00;100069.53;10525871;28;19924;-64
2023/03/23 02:54:07;;;;;;;;;;;;;;;11.33;100.00;100061.94;10544848;28;19967;-64
2023/03/23 02:59:08;;;;;;;;;;;;;;;11.40;100.00;100057.94;10524908;28;20370;-67
2023/03/23 03:04:13;;;;;;;;;;;;;;;11.43;100.00;100049.00;10545364;28;19928;-64
2023/03/23 03:09:18;;;;;;;;;;;;;;;11.43;100.00;100047.25;10527446;28;19924;-64
2023/03/23 03:14:24;;;;;;;;;;;;;;;11.21;100.00;100050.56;10526380;28;20015;-66
2023/03/23 03:19:32;;;;;;;;;;;;;;;11.57;100.00;100055.88;10526464;28;20030;-64
2023/03/23 03:24:34;;;;;;;;;;;;;;;11.67;100.00;100054.25;10526460;28;20379;-64
2023/03/23 03:29:35;;;;;;;;;;;;;;;11.66;100.00;100052.56;10534952;28;20015;-64
2023/03/23 03:34:37;;;;;;;;;;;;;;;11.89;100.00;100056.13;10509176;28;19928;-64
2023/03/23 03:39:38;;;;;;;;;;;;;;;11.81;100.00;100055.84;10525745;28;19924;-64
2023/03/23 03:44:39;;;;;;;;;;;;;;;11.56;100.00;100057.66;10542428;28;19931;-64
2023/03/23 03:49:41;;;;;;;;;;;;;;;11.59;100.00;100061.84;10543725;28;19931;-66
2023/03/23 03:54:42;;;;;;;;;;;;;;;11.61;100.00;100037.16;10523689;28;20287;-64
2023/03/23 03:59:43;;;;;;;;;;;;;;;11.65;100.00;100057.00;10525136;28;19924;-65
2023/03/23 04:04:44;;;;;;;;;;;;;;;11.65;100.00;100041.25;10542666;28;20007;-64
2023/03/23 04:09:47;;;;;;;;;;;;;;;11.59;100.00;100038.25;10541532;28;19924;-64
2023/03/23 04:14:48;;;;;;;;;;;;;;;11.55;100.00;100049.91;10542812;28;19967;-64
2023/03/23 04:19:49;;;;;;;;;;;;;;;11.56;100.00;100052.41;10541287;28;20405;-64
2023/03/23 04:24:51;;;;;;;;;;;;;;;11.69;100.00;100047.09;10540410;28;19931;-64
2023/03/23 04:29:52;;;;;;;;;;;;;;;11.67;100.00;100059.50;10523550;28;19924;-66
2023/03/23 04:34:54;;;;;;;;;;;;;;;11.60;100.00;100069.59;10522468;28;19969;-64
2023/03/23 04:40:00;;;;;;;;;;;;;;;11.86;100.00;100059.78;10522957;28;20284;-64
2023/03/23 04:45:02;;;;;;;;;;;;;;;11.76;100.00;100069.28;10524500;28;19924;-64
2023/03/23 04:50:04;;;;;;;;;;;;;;;11.65;100.00;100066.63;10506217;28;19986;-64
2023/03/23 04:55:06;;;;;;;;;;;;;;;11.64;100.00;100072.81;10540718;28;19924;-64
2023/03/23 05:00:08;;;;;;;;;;;;;;;11.57;100.00;100088.16;10540382;28;20367;-65
2023/03/23 05:05:11;;;;;;;;;;;;;;;11.77;100.00;100094.59;10539794;28;20367;-64
2023/03/23 05:10:13;;;;;;;;;;;;;;;11.69;100.00;100082.03;10539841;28;19924;-64
2023/03/23 05:15:15;;;;;;;;;;;;;;;11.82;100.00;100081.13;10539601;28;20283;-65
2023/03/23 05:20:20;;;;;;;;;;;;;;;11.79;100.00;100089.22;10539942;28;19928;-65
2023/03/23 05:25:22;;;;;;;;;;;;;;;11.74;100.00;100091.34;10522424;28;19950;-64
2023/03/23 05:30:23;;;;;;;;;;;;;;;11.73;100.00;100087.88;10539005;28;19924;-65
2023/03/23 05:35:24;;;;;;;;;;;;;;;11.58;100.00;100096.88;10521727;28;19924;-65
2023/03/23 05:40:25;;;;;;;;;;;;;;;11.74;100.00;100088.72;10522274;28;19924;-65
2023/03/23 05:45:26;;;;;;;;;;;;;;;11.80;100.00;100096.97;10539238;28;19934;-65
2023/03/23 05:50:28;;;;;;;;;;;;;;;11.61;100.00;100094.84;10539459;28;20378;-65
2023/03/23 05:55:29;;;;;;;;;;;;;;;11.61;100.00;100086.97;10538278;28;19924;-65
2023/03/23 06:00:30;;;;;;;;;;;;;;;11.67;100.00;100093.59;10520619;28;19924;-65
2023/03/23 06:05:32;;;;;;;;;;;;;;;11.69;100.00;100084.63;10538506;28;19960;-65
2023/03/23 06:10:36;;;;;;;;;;;;;;;11.61;100.00;100094.03;10538946;28;19924;-65
2023/03/23 06:15:37;;;;;;;;;;;;;;;11.67;100.00;100096.22;10520974;28;19935;-66
2023/03/23 06:20:39;;;;;;;;;;;;;;;11.80;100.00;100114.47;10519972;28;19924;-65
2023/03/23 06:25:40;;;;;;;;;;;;;;;11.68;100.00;100122.31;10538370;28;19931;-66
2023/03/23 06:30:41;;;;;;;;;;;;;;;11.85;100.00;100131.56;10520671;28;20294;-65
2023/03/23 06:35:43;;;;;;;;;;;;;;;11.89;100.00;100135.63;10524839;28;19931;-65
2023/03/23 06:40:46;;;;;;;;;;;;;;;11.95;100.00;100139.63;10528061;28;19978;-65
2023/03/23 06:45:47;;;;;;;;;;;;;;;12.00;100.00;100150.63;10546503;28;19924;-65
2023/03/23 06:50:48;;;;;;;;;;;;;;;11.80;100.00;100154.69;10542581;28;20390;-65
2023/03/23 06:55:51;;;;;;;;;;;;;;;11.86;100.00;100158.63;10527377;28;19946;-65
2023/03/23 07:00:58;;;;;;;;;;;;;;;11.64;100.00;100159.34;10526920;28;19947;-65
2023/03/23 07:06:00;;;;;;;;;;;;;;;11.64;100.00;100156.72;10509466;28;19977;-65
2023/03/23 07:11:02;;;;;;;;;;;;;;;11.52;100.00;100164.53;10544843;28;19978;-65
2023/03/23 07:16:04;;;;;;;;;;;;;;;11.66;100.00;100163.53;10525977;28;19932;-65
2023/03/23 07:21:06;;;;;;;;;;;;;;;11.50;100.00;100184.78;10526437;28;20341;-64
2023/03/23 07:26:07;;;;;;;;;;;;;;;11.23;100.00;100191.94;10543442;28;20306;-64
2023/03/23 07:31:09;;;;;;;;;;;;;;;11.13;100.00;100215.34;10525834;28;19959;-64
2023/03/23 07:36:10;;;;;;;;;;;;;;;10.92;100.00;100239.44;10525109;28;19924;-63
2023/03/23 07:41:12;;;;;;;;;;;;;;;10.68;100.00;100228.84;10540778;28;20010;-63
2023/03/23 07:46:13;;;;;;;;;;;;;;;10.85;100.00;100237.34;10524968;28;19924;-63
2023/03/23 07:51:16;;;;;;;;;;;;;;;11.27;100.00;100222.25;10525099;28;20045;-63
2023/03/23 07:56:19;;;;;;;;;;;;;;;11.56;100.00;100224.59;10525076;28;19932;-63
2023/03/23 08:01:21;;;;;;;;;;;;;;;11.26;100.00;100229.28;10539995;28;20014;-63
2023/03/23 08:06:23;;;;;;;;;;;;;;;11.45;100.00;100220.97;10523212;28;20391;-63
2023/03/23 08:11:24;;;;;;;;;;;;;;;11.60;100.00;100234.78;10542844;28;20019;-63
2023/03/23 08:16:25;;;;;;;;;;;;;;;11.29;100.00;100228.22;10514595;28;19924;-63
2023/03/23 08:21:27;;;;;;;;;;;;;;;11.00;100.00;100240.72;10522692;28;20313;-64
2023/03/23 08:26:28;;;;;;;;;;;;;;;11.04;100.00;100242.16;10523627;28;20387;-64
2023/03/23 08:31:29;;;;;;;;;;;;;;;11.17;100.00;100247.41;10519273;28;19924;-64
2023/03/23 08:36:31;;;;;;;;;;;;;;;10.91;100.00;100263.97;10541719;28;20390;-64
2023/03/23 08:41:32;;;;;;;;;;;;;;;10.75;100.00;100269.38;10541493;28;19931;-64
2023/03/23 08:46:34;;;;;;;;;;;;;;;11.37;100.00;100256.53;10541299;28;19994;-64
2023/03/23 08:51:35;;;;;;;;;;;;;;;10.81;100.00;100273.38;10539730;28;19924;-64
2023/03/23 08:56:36;;;;;;;;;;;;;;;10.83;100.00;100266.25;10539189;28;20062;-65
2023/03/23 09:01:38;;;;;;;;;;;;;;;10.90;100.00;100264.06;10540451;28;20382;-64
2023/03/23 09:06:39;;;;;;;;;;;;;;;11.16;100.00;100264.88;10538734;28;19924;-64
2023/03/23 09:11:40;;;;;;;;;;;;;;;11.26;100.00;100254.63;10535631;28;19932;-64
2023/03/23 09:16:41;;;;;;;;;;;;;;;11.47;100.00;100274.13;10488895;22;19971;-65
2023/03/23 09:21:45;;;;;;;;;;;;;;;11.15;100.00;100276.34;10439160;28;19925;-64
2023/03/23 09:26:46;;;;;;;;;;;;;;;11.45;100.00;100281.25;10427189;28;20278;-65
2023/03/23 09:31:47;;;;;;;;;;;;;;;11.58;100.00;100272.53;10439420;28;19935;-65
2023/03/23 09:36:49;;;;;;;;;;;;;;;11.92;100.00;100284.16;10438765;28;19963;-65
2023/03/23 09:42:16;;;;;;;;;;;;;;;13.23;100.00;100268.38;10456617;28;19976;-65
2023/03/23 09:47:26;;;;;;;;;;;;;;;14.15;94.65;100268.22;10415836;28;20414;-65
2023/03/23 09:52:48;;;;;;;;;;;;;;;13.67;86.05;100264.97;10422705;28;19925;-65
2023/03/23 09:58:08;;;;;;;;;;;;;;;14.31;85.46;100272.13;10439223;28;20019;-65
2023/03/23 10:03:16;;;;;;;;;;;;;;;16.49;82.28;100277.31;10438255;28;19925;-65
2023/03/23 10:08:22;;;;;;;;;;;;;;;16.67;78.51;100282.72;10423871;28;19929;-65
2023/03/23 10:13:28;;;;;;;;;;;;;;;16.10;78.47;100280.75;10445790;28;19924;-65
2023/03/23 10:18:36;;;;;;;;;;;;;;;15.92;75.03;100287.66;10430109;28;19986;-65
2023/03/23 10:23:53;;;;;;;;;;;;;;;15.95;74.60;100301.44;10446386;28;19932;-65
2023/03/23 10:28:56;;;;;;;;;;;;;;;16.56;72.01;100288.16;10429067;28;19925;-66
2023/03/23 10:34:05;;;;;;;;;;;;;;;18.69;69.73;100284.78;10429237;28;19929;-66
2023/03/23 10:39:09;;;;;;;;;;;;;;;17.46;68.39;100321.31;10445220;28;20357;-65
2023/03/23 10:44:12;;;;;;;;;;;;;;;18.30;70.29;100298.34;10445524;28;19925;-66
2023/03/23 10:49:14;;;;;;;;;;;;;;;18.79;67.53;100287.34;10428261;28;20379;-66
2023/03/23 10:54:25;;;;;;;;;;;;;;;18.01;64.63;100312.59;10444692;28;19925;-66
2023/03/23 10:59:27;;;;;;;;;;;;;;;16.73;68.61;100303.34;10444432;28;19961;-66
2023/03/23 11:04:30;;;;;;;;;;;;;;;19.09;63.35;100310.78;10462564;28;19924;-66
2023/03/23 11:09:35;;;;;;;;;;;;;;;16.76;67.01;100300.41;10427640;28;19967;-66
2023/03/23 11:14:39;;;;;;;;;;;;;;;19.66;62.46;100304.16;10427124;28;19925;-66
2023/03/23 11:19:40;;;;;;;;;;;;;;;20.02;61.22;100296.84;10443109;28;20402;-67
2023/03/23 11:24:43;;;;;;;;;;;;;;;17.59;64.95;100295.34;10443341;28;19947;-66
2023/03/23 11:29:47;;;;;;;;;;;;;;;19.08;61.14;100295.88;10443786;28;19925;-66
2023/03/23 11:34:48;;;;;;;;;;;;;;;18.72;61.75;100287.94;10443043;28;19979;-66
2023/03/23 11:40:00;;;;;;;;;;;;;;;17.50;63.43;100314.78;10426355;28;20019;-66
2023/03/23 11:45:27;;;;;;;;;;;;;;;17.39;67.55;100312.28;10426047;28;20291;-66
2023/03/23 11:50:55;;;;;;;;;;;;;;;15.63;69.48;100306.84;10456947;28;20443;-66
2023/03/23 11:55:56;;;;;;;;;;;;;;;16.71;66.93;100298.19;10419885;28;20287;-66
2023/03/23 12:00:57;;;;;;;;;;;;;;;19.83;60.81;100291.81;10442667;28;19936;-66
2023/03/23 12:06:02;;;;;;;;;;;;;;;20.90;58.24;100307.97;10459568;28;19925;-66
2023/03/23 12:11:07;;;;;;;;;;;;;;;19.61;60.53;100301.16;10442357;28;19931;-66
2023/03/23 12:16:08;;;;;;;;;;;;;;;19.27;55.97;100294.00;10391849;28;19951;-66
2023/03/23 12:21:15;;;;;;;;;;;;;;;20.69;57.99;100273.88;10400621;28;19925;-66
2023/03/23 12:26:19;;;;;;;;;;;;;;;19.07;56.23;100288.06;10417894;28;19931;-66
2023/03/23 12:31:25;;;;;;;;;;;;;;;18.72;59.67;100292.41;10439090;28;20406;-66
2023/03/23 12:36:30;;;;;;;;;;;;;;;21.70;55.40;100283.16;10423551;28;19924;-66
2023/03/23 12:41:31;;;;;;;;;;;;;;;18.79;62.04;100290.81;10453277;28;20421;-65
2023/03/23 12:46:36;;;;;;;;;;;;;;;17.80;62.52;100278.38;10417315;28;19925;-65
2023/03/23 12:51:40;;;;;;;;;;;;;;;18.80;60.48;100271.28;10399570;28;19936;-66
2023/03/23 12:56:58;;;;;;;;;;;;;;;17.52;63.41;100259.88;10415415;28;19925;-65
2023/03/23 13:02:23;;;;;;;;;;;;;;;19.89;58.94;100248.66;10415319;28;19951;-66
2023/03/23 13:07:26;;;;;;;;;;;;;;;20.23;56.00;100240.56;10404573;28;19925;-66
2023/03/23 13:12:28;;;;;;;;;;;;;;;19.93;54.00;100225.25;10398889;28;19998;-67
2023/03/23 13:17:55;;;;;;;;;;;;;;;18.36;61.05;100250.88;10398407;28;19925;-66
2023/03/23 13:23:16;;;;;;;;;;;;;;;16.79;62.23;100263.09;10411520;28;19937;-66
2023/03/23 13:28:22;;;;;;;;;;;;;;;17.53;60.97;100255.41;10415862;28;19929;-66
2023/03/23 13:33:23;;;;;;;;;;;;;;;19.77;56.30;100244.63;10398523;28;19925;-66
2023/03/23 13:38:26;;;;;;;;;;;;;;;20.92;55.80;100258.88;10398494;28;19925;-66
2023/03/23 13:43:27;;;;;;;;;;;;;;;18.21;60.01;100260.34;10401940;28;20359;-66
2023/03/23 13:48:28;;;;;;;;;;;;;;;17.30;60.38;100287.53;10422485;28;19925;-66
2023/03/23 13:53:33;;;;;;;;;;;;;;;17.36;60.75;100259.66;10422259;28;19932;-66
2023/03/23 13:58:43;;;;;;;;;;;;;;;17.57;63.03;100256.78;10422984;28;19925;-66
2023/03/23 14:03:50;;;;;;;;;;;;;;;17.15;63.51;100249.31;10405537;28;19925;-66
2023/03/23 14:08:52;;;;;;;;;;;;;;;16.68;64.40;100261.44;10423037;28;19925;-66
2023/03/23 14:13:57;;;;;;;;;;;;;;;16.61;65.06;100257.72;10409710;28;19925;-66
2023/03/23 14:19:02;;;;;;;;;;;;;;;16.73;63.87;100279.53;10446083;28;19925;-66
2023/03/23 14:24:06;;;;;;;;;;;;;;;14.73;72.90;100297.72;10430035;28;19931;-65
2023/03/23 14:29:09;;;;;;;;;;;;;;;14.59;74.59;100295.38;10429095;28;19929;-65
2023/03/23 14:34:12;;;;;;;;;;;;;;;14.89;75.77;100297.28;10428914;28;19925;-65
2023/03/23 14:39:16;;;;;;;;;;;;;;;15.45;74.39;100303.16;10445320;28;19925;-65
2023/03/23 14:44:20;;;;;;;;;;;;;;;16.19;73.09;100296.75;10444965;28;20433;-66
2023/03/23 14:49:25;;;;;;;;;;;;;;;18.54;65.86;100266.78;10429017;28;19929;-66
2023/03/23 14:54:27;;;;;;;;;;;;;;;19.66;62.10;100222.66;10462277;28;19925;-66
2023/03/23 14:59:28;;;;;;;;;;;;;;;21.75;61.08;100216.84;10444372;28;20283;-66
2023/03/23 15:04:30;;;;;;;;;;;;;;;21.78;56.35;100191.69;10427682;28;20287;-67
2023/03/23 15:09:31;;;;;;;;;;;;;;;21.75;54.11;100189.38;10461955;28;19924;-67
2023/03/23 15:14:35;;;;;;;;;;;;;;;20.56;53.84;100203.38;10443769;28;19941;-67
2023/03/23 15:19:37;;;;;;;;;;;;;;;20.53;55.15;100211.69;10427971;28;19925;-67
2023/03/23 15:24:39;;;;;;;;;;;;;;;20.70;57.37;100220.50;10427039;28;20264;-67
2023/03/23 15:30:01;;;;;;;;;;;;;;;21.93;53.16;100227.25;10444007;28;19931;-67
2023/03/23 15:35:03;;;;;;;;;;;;;;;22.19;56.38;100200.25;10426509;28;20306;-67
2023/03/23 15:40:05;;;;;;;;;;;;;;;20.00;53.53;100197.84;10442816;28;19925;-67
2023/03/23 15:45:10;;;;;;;;;;;;;;;19.61;59.99;100179.81;10426965;28;20023;-67
2023/03/23 15:50:15;;;;;;;;;;;;;;;19.85;57.14;100183.56;10443060;28;19924;-67
2023/03/23 15:55:18;;;;;;;;;;;;;;;18.35;59.46;100176.81;10442255;28;19931;-67
2023/03/23 16:00:20;;;;;;;;;;;;;;;17.91;60.81;100180.25;10426282;28;19932;-67
2023/03/23 16:05:22;;;;;;;;;;;;;;;18.04;64.21;100205.50;10440895;28;19932;-67
2023/03/23 16:10:27;;;;;;;;;;;;;;;16.97;64.54;100170.69;10459392;28;20371;-67
2023/03/23 16:15:30;;;;;;;;;;;;;;;16.84;64.68;100172.78;10441763;28;19924;-67
2023/03/23 16:20:34;;;;;;;;;;;;;;;16.87;65.92;100191.88;10459121;28;20323;-67
2023/03/23 16:25:37;;;;;;;;;;;;;;;16.03;68.10;100200.41;10459517;28;19929;-67
2023/03/23 16:30:43;;;;;;;;;;;;;;;16.53;67.42;100187.06;10459246;28;19931;-67
2023/03/23 16:35:45;;;;;;;;;;;;;;;20.50;56.79;100182.75;10440664;28;19924;-67
2023/03/23 16:40:48;;;;;;;;;;;;;;;21.64;51.58;100206.59;10458890;28;19960;-67
2023/03/23 16:45:50;;;;;;;;;;;;;;;18.05;60.73;100213.31;10440610;28;19994;-67
2023/03/23 16:50:53;;;;;;;;;;;;;;;17.06;65.64;100216.59;10441002;28;19931;-67
2023/03/23 16:55:56;;;;;;;;;;;;;;;16.17;68.25;100217.66;10440754;28;19975;-67
2023/03/23 17:00:59;;;;;;;;;;;;;;;15.95;69.28;100226.66;10457615;28;19979;-67
2023/03/23 17:06:03;;;;;;;;;;;;;;;15.20;72.34;100224.34;10440559;28;19932;-66
2023/03/23 17:11:05;;;;;;;;;;;;;;;15.16;72.86;100228.22;10440569;28;19951;-66
2023/03/23 17:16:08;;;;;;;;;;;;;;;15.32;72.94;100214.53;10456655;28;19933;-66
2023/03/23 17:21:10;;;;;;;;;;;;;;;15.09;74.43;100208.59;10457802;28;19924;-66
2023/03/23 17:26:12;;;;;;;;;;;;;;;15.23;75.61;100215.31;10430179;28;19979;-66
2023/03/23 17:31:14;;;;;;;;;;;;;;;14.60;78.33;100208.31;10432405;28;19925;-66
2023/03/23 17:36:17;;;;;;;;;;;;;;;14.63;79.94;100212.53;10449252;28;19986;-66
2023/03/23 17:41:22;;;;;;;;;;;;;;;14.39;81.64;100203.03;10457236;28;19925;-66
2023/03/23 17:46:24;;;;;;;;;;;;;;;13.93;84.41;100207.59;10457135;28;19925;-66
2023/03/23 17:51:26;;;;;;;;;;;;;;;14.27;83.08;100202.25;10455847;28;20455;-66
2023/03/23 17:56:28;;;;;;;;;;;;;;;14.04;85.23;100198.84;10456802;28;19978;-67
2023/03/23 18:01:31;;;;;;;;;;;;;;;14.00;86.05;100189.53;10423616;28;19925;-68
2023/03/23 18:06:33;;;;;;;;;;;;;;;14.05;86.19;100181.25;10415567;28;20364;-68
2023/03/23 18:11:36;;;;;;;;;;;;;;;13.98;85.99;100188.00;10397981;28;19925;-68
2023/03/23 18:16:38;;;;;;;;;;;;;;;13.62;87.97;100184.75;10449600;28;19929;-68
2023/03/23 18:21:40;;;;;;;;;;;;;;;13.66;88.48;100179.09;10455842;28;20303;-67
2023/03/23 18:26:44;;;;;;;;;;;;;;;13.44;90.44;100166.84;10438449;28;20295;-67
2023/03/23 18:31:46;;;;;;;;;;;;;;;13.66;89.32;100157.22;10461210;28;20011;-67
2023/03/23 18:36:49;;;;;;;;;;;;;;;13.49;89.61;100162.03;10445445;28;19928;-67
2023/03/23 18:41:51;;;;;;;;;;;;;;;13.31;91.42;100153.78;10462281;28;20394;-67
2023/03/23 18:46:53;;;;;;;;;;;;;;;13.53;90.14;100146.84;10463389;28;19925;-67
2023/03/23 18:51:55;;;;;;;;;;;;;;;13.59;88.95;100143.75;10462574;28;19924;-67
2023/03/23 18:56:57;;;;;;;;;;;;;;;13.32;92.22;100152.88;10431360;28;19925;-67
2023/03/23 19:02:02;;;;;;;;;;;;;;;13.28;92.27;100132.16;10421712;28;19925;-68
2023/03/23 19:07:04;;;;;;;;;;;;;;;13.50;90.94;100132.16;10421590;28;19925;-67
2023/03/23 19:12:07;;;;;;;;;;;;;;;13.43;88.83;100132.78;10436287;28;19932;-67
2023/03/23 19:17:09;;;;;;;;;;;;;;;13.26;91.46;100129.66;10432910;28;19925;-67
2023/03/23 19:22:11;;;;;;;;;;;;;;;13.40;90.57;100122.50;10461617;28;19979;-67
2023/03/23 19:27:14;;;;;;;;;;;;;;;13.22;92.77;100111.63;10461205;28;19978;-67
2023/03/23 19:32:17;;;;;;;;;;;;;;;13.25;92.14;100098.25;10461622;28;19925;-67
2023/03/23 19:37:19;;;;;;;;;;;;;;;13.26;91.48;100098.09;10458037;28;19928;-68
2023/03/23 19:42:22;;;;;;;;;;;;;;;13.37;89.09;100081.53;10458279;28;19935;-68
2023/03/23 19:47:25;;;;;;;;;;;;;;;13.21;91.40;100081.88;10455193;28;20330;-67
2023/03/23 19:52:27;;;;;;;;;;;;;;;13.20;91.18;100072.34;10458556;28;19925;-67
2023/03/23 19:57:29;;;;;;;;;;;;;;;13.16;89.95;100063.84;10435407;28;19929;-67
2023/03/23 20:02:31;;;;;;;;;;;;;;;13.19;89.34;100063.59;10453900;28;19932;-67
2023/03/23 20:07:34;;;;;;;;;;;;;;;12.99;90.86;100064.34;10457683;28;19970;-67
2023/03/23 20:12:36;;;;;;;;;;;;;;;13.23;89.90;100058.09;10438083;28;19929;-67
2023/03/23 20:17:38;;;;;;;;;;;;;;;13.17;89.28;100051.53;10431608;28;20324;-67
2023/03/23 20:22:41;;;;;;;;;;;;;;;13.11;88.60;100049.41;10413239;28;20058;-68
2023/03/23 20:27:44;;;;;;;;;;;;;;;13.18;90.11;100054.06;10430063;28;19928;-67
2023/03/23 20:32:46;;;;;;;;;;;;;;;12.93;93.96;100055.16;10423553;28;19925;-68
2023/03/23 20:37:49;;;;;;;;;;;;;;;13.06;93.43;100044.50;10454748;28;19935;-68
2023/03/23 20:42:53;;;;;;;;;;;;;;;12.65;100.00;100051.25;10439944;28;19925;-66
2023/03/23 20:47:55;;;;;;;;;;;;;;;12.66;100.00;100038.94;10456891;28;19974;-66
2023/03/23 20:52:57;;;;;;;;;;;;;;;12.48;100.00;100039.44;10455546;28;20351;-66
2023/03/23 20:58:00;;;;;;;;;;;;;;;12.54;100.00;100025.84;10445566;28;19925;-66
2023/03/23 21:03:02;;;;;;;;;;;;;;;12.49;100.00;100024.50;10451575;28;19925;-67
2023/03/23 21:08:05;;;;;;;;;;;;;;;12.50;100.00;100023.56;10457245;28;19924;-67
2023/03/23 21:13:09;;;;;;;;;;;;;;;12.25;100.00;100026.28;10456372;28;19925;-67
2023/03/23 21:18:11;;;;;;;;;;;;;;;12.30;100.00;100022.47;10450812;28;19925;-67
2023/03/23 21:23:13;;;;;;;;;;;;;;;12.22;100.00;100013.41;10437628;28;19928;-66
2023/03/23 21:28:16;;;;;;;;;;;;;;;12.32;100.00;100002.19;10453660;22;20311;-66
2023/03/23 21:33:18;;;;;;;;;;;;;;;12.22;100.00;100010.78;10457758;28;20406;-66
2023/03/23 21:38:24;;;;;;;;;;;;;;;12.15;100.00;99990.38;10485852;28;20015;-66
2023/03/23 21:43:27;;;;;;;;;;;;;;;12.23;100.00;99980.13;10447065;28;19946;-66
2023/03/23 21:48:29;;;;;;;;;;;;;;;12.07;100.00;99972.59;10456980;28;19932;-66
2023/03/23 21:53:35;;;;;;;;;;;;;;;12.14;100.00;99968.53;10436787;28;19924;-66
2023/03/23 21:58:37;;;;;;;;;;;;;;;12.18;100.00;99959.47;10461074;28;20012;-66
2023/03/23 22:03:40;;;;;;;;;;;;;;;12.15;100.00;99958.88;10458867;28;19929;-66
2023/03/23 22:08:42;;;;;;;;;;;;;;;12.24;100.00;99947.69;10464237;28;19932;-66
2023/03/23 22:13:45;;;;;;;;;;;;;;;12.19;100.00;99948.03;10446332;28;19924;-67
2023/03/23 22:18:48;;;;;;;;;;;;;;;12.33;100.00;99946.13;10445313;28;19925;-67
2023/03/23 22:23:50;;;;;;;;;;;;;;;12.03;100.00;99929.19;10445584;28;19928;-67
2023/03/23 22:28:53;;;;;;;;;;;;;;;12.01;100.00;99931.91;10463800;28;19924;-67
2023/03/23 22:33:55;;;;;;;;;;;;;;;12.13;100.00;99918.81;10445872;28;19935;-67
2023/03/23 22:38:58;;;;;;;;;;;;;;;12.02;100.00;99915.22;10462629;28;20326;-67
2023/03/23 22:44:00;;;;;;;;;;;;;;;11.88;100.00;99911.03;10445246;28;19929;-67
2023/03/23 22:49:04;;;;;;;;;;;;;;;11.84;100.00;99901.72;10462413;28;19924;-66
2023/03/23 22:54:31;;;;;;;;;;;;;;;11.70;100.00;99897.53;10449251;28;19921;-66
2023/03/23 22:59:33;;;;;;;;;;;;;;;11.85;100.00;99871.06;10462143;28;19925;-66
2023/03/23 23:04:36;;;;;;;;;;;;;;;11.86;100.00;99867.50;10461924;28;19925;-66
2023/03/23 23:09:39;;;;;;;;;;;;;;;11.64;100.00;99876.19;10461380;28;20376;-66
2023/03/23 23:14:42;;;;;;;;;;;;;;;11.62;100.00;99872.84;10442630;28;19932;-67
2023/03/23 23:19:44;;;;;;;;;;;;;;;11.58;100.00;99855.66;10455541;28;20404;-66
2023/03/23 23:24:47;;;;;;;;;;;;;;;11.71;100.00;99864.28;10460885;28;19970;-66
2023/03/23 23:29:49;;;;;;;;;;;;;;;11.53;100.00;99841.16;10461082;28;20446;-67
2023/03/23 23:34:51;;;;;;;;;;;;;;;11.66;100.00;99834.94;10461586;28;19924;-67
2023/03/23 23:39:54;;;;;;;;;;;;;;;11.55;100.00;99840.16;10460278;28;19931;-69
2023/03/23 23:44:56;;;;;;;;;;;;;;;11.66;100.00;99824.47;10459987;28;20330;-67
2023/03/23 23:49:59;;;;;;;;;;;;;;;11.55;100.00;99827.06;10461116;28;19931;-67
2023/03/23 23:55:01;;;;;;;;;;;;;;;11.80;100.00;99819.00;10460343;28;19925;-67
